createdAt,value
2023-05-01T00:02:10.772Z,16.57
2023-05-01T00:04:37.390Z,16.57
2023-05-01T00:07:03.863Z,16.56
2023-05-01T00:09:30.324Z,16.53
2023-05-01T00:11:56.779Z,16.48
2023-05-01T00:14:23.299Z,16.47
2023-05-01T00:16:50.221Z,16.47
2023-05-01T00:19:19.746Z,16.44
2023-05-01T00:21:46.214Z,16.40
2023-05-01T00:24:12.635Z,16.41
2023-05-01T00:26:39.185Z,16.38
2023-05-01T00:29:05.648Z,16.35
2023-05-01T00:31:32.107Z,16.34
2023-05-01T00:33:58.653Z,16.33
2023-05-01T00:36:25.055Z,16.33
2023-05-01T00:38:51.470Z,16.28
2023-05-01T00:41:17.877Z,16.26
2023-05-01T00:43:44.234Z,16.26
2023-05-01T00:48:54.294Z,16.30
2023-05-01T00:51:20.792Z,16.34
2023-05-01T00:53:47.237Z,16.35
2023-05-01T00:56:13.645Z,16.36
2023-05-01T00:58:40.071Z,16.35
2023-05-01T01:01:06.473Z,16.36
2023-05-01T01:03:33.012Z,16.32
2023-05-01T01:05:59.499Z,16.27
2023-05-01T01:08:25.978Z,16.28
2023-05-01T01:10:52.444Z,16.30
2023-05-01T01:13:18.874Z,16.26
2023-05-01T01:15:45.308Z,16.26
2023-05-01T01:18:11.716Z,16.32
2023-05-01T01:20:38.340Z,16.32
2023-05-01T01:23:04.779Z,16.28
2023-05-01T01:25:31.305Z,16.24
2023-05-01T01:27:57.888Z,16.15
2023-05-01T01:30:24.410Z,16.13
2023-05-01T01:32:50.924Z,16.15
2023-05-01T01:35:17.447Z,16.10
2023-05-01T01:37:43.984Z,16.13
2023-05-01T01:40:10.469Z,16.14
2023-05-01T01:42:37.006Z,16.19
2023-05-01T01:45:03.464Z,16.21
2023-05-01T01:47:29.953Z,16.16
2023-05-01T01:49:56.618Z,16.13
2023-05-01T01:52:23.350Z,16.06
2023-05-01T01:54:49.810Z,16.04
2023-05-01T01:57:16.313Z,16.03
2023-05-01T01:59:42.868Z,15.95
2023-05-01T02:02:09.371Z,15.90
2023-05-01T02:04:35.879Z,15.97
2023-05-01T02:07:02.400Z,16.07
2023-05-01T02:09:28.799Z,16.07
2023-05-01T02:11:55.366Z,16.05
2023-05-01T02:14:28.904Z,16.07
2023-05-01T02:16:55.406Z,16.09
2023-05-01T02:19:21.860Z,16.09
2023-05-01T02:21:48.362Z,16.07
2023-05-01T02:24:14.856Z,16.04
2023-05-01T02:26:41.293Z,16.06
2023-05-01T02:29:07.794Z,16.06
2023-05-01T02:31:42.303Z,16.07
2023-05-01T02:34:08.960Z,16.03
2023-05-01T02:36:35.481Z,16.02
2023-05-01T02:39:02.129Z,16.01
2023-05-01T02:41:28.577Z,15.99
2023-05-01T02:43:55.101Z,15.97
2023-05-01T02:46:21.557Z,15.98
2023-05-01T02:48:48.073Z,15.97
2023-05-01T02:51:14.605Z,15.98
2023-05-01T02:53:41.098Z,15.95
2023-05-01T02:56:07.627Z,15.97
2023-05-01T02:58:34.082Z,15.97
2023-05-01T03:01:00.524Z,15.93
2023-05-01T03:03:27.003Z,15.93
2023-05-01T03:05:56.243Z,15.90
2023-05-01T03:08:22.770Z,15.88
2023-05-01T03:10:49.306Z,15.80
2023-05-01T03:13:15.824Z,15.86
2023-05-01T03:15:42.315Z,15.92
2023-05-01T03:18:08.869Z,15.93
2023-05-01T03:20:35.384Z,15.98
2023-05-01T03:23:01.845Z,15.98
2023-05-01T03:25:29.621Z,15.95
2023-05-01T03:28:02.030Z,15.92
2023-05-01T03:30:28.522Z,15.89
2023-05-01T03:32:55.067Z,15.89
2023-05-01T03:35:28.117Z,15.84
2023-05-01T03:37:54.528Z,15.80
2023-05-01T03:40:20.973Z,15.79
2023-05-01T03:42:47.486Z,15.78
2023-05-01T03:45:14.005Z,15.80
2023-05-01T03:47:40.466Z,15.85
2023-05-01T03:50:07.039Z,15.87
2023-05-01T03:52:33.474Z,15.86
2023-05-01T03:54:59.860Z,15.85
2023-05-01T03:57:26.241Z,15.85
2023-05-01T03:59:52.637Z,15.82
2023-05-01T04:02:21.194Z,15.74
2023-05-01T04:04:52.034Z,15.80
2023-05-01T04:07:18.537Z,15.79
2023-05-01T04:09:45.037Z,15.81
2023-05-01T04:12:12.968Z,15.81
2023-05-01T04:14:39.605Z,15.75
2023-05-01T04:17:06.033Z,15.67
2023-05-01T04:22:26.169Z,15.56
2023-05-01T04:24:52.593Z,15.55
2023-05-01T04:27:19.069Z,15.56
2023-05-01T04:29:50.829Z,15.58
2023-05-01T04:32:17.778Z,15.61
2023-05-01T04:34:49.606Z,15.55
2023-05-01T04:37:16.108Z,15.61
2023-05-01T04:42:22.909Z,15.67
2023-05-01T04:44:49.467Z,15.68
2023-05-01T04:47:15.976Z,15.67
2023-05-01T04:52:51.968Z,15.61
2023-05-01T04:55:18.476Z,15.62
2023-05-01T04:57:47.909Z,15.58
2023-05-01T05:00:14.394Z,15.55
2023-05-01T05:02:40.909Z,15.57
2023-05-01T05:05:07.410Z,15.58
2023-05-01T05:07:33.921Z,15.57
2023-05-01T05:10:00.366Z,15.59
2023-05-01T05:12:26.852Z,15.57
2023-05-01T05:14:53.362Z,15.59
2023-05-01T05:17:26.723Z,15.57
2023-05-01T05:19:53.470Z,15.56
2023-05-01T05:22:22.425Z,15.53
2023-05-01T05:24:48.833Z,15.50
2023-05-01T05:27:15.219Z,15.50
2023-05-01T05:32:31.994Z,15.47
2023-05-01T05:34:58.430Z,15.46
2023-05-01T05:40:08.910Z,15.58
2023-05-01T05:42:35.324Z,15.61
2023-05-01T05:45:01.773Z,15.61
2023-05-01T05:47:28.239Z,15.63
2023-05-01T05:49:54.879Z,15.64
2023-05-01T05:52:21.476Z,15.65
2023-05-01T05:54:47.957Z,15.67
2023-05-01T05:57:14.520Z,15.63
2023-05-01T05:59:41.110Z,15.61
2023-05-01T06:02:07.676Z,15.61
2023-05-01T06:04:34.171Z,15.57
2023-05-01T06:07:00.720Z,15.59
2023-05-01T06:09:27.270Z,15.55
2023-05-01T06:11:53.715Z,15.57
2023-05-01T06:14:20.179Z,15.60
2023-05-01T06:16:46.827Z,15.63
2023-05-01T06:19:13.325Z,15.65
2023-05-01T06:21:39.786Z,15.67
2023-05-01T06:24:06.373Z,15.69
2023-05-01T06:26:33.010Z,15.70
2023-05-01T06:29:00.834Z,15.70
2023-05-01T06:31:28.813Z,15.73
2023-05-01T06:33:55.328Z,15.74
2023-05-01T06:36:30.680Z,15.67
2023-05-01T06:38:57.240Z,15.69
2023-05-01T06:41:23.852Z,15.71
2023-05-01T06:43:50.276Z,15.55
2023-05-01T06:46:16.971Z,15.46
2023-05-01T06:48:43.582Z,15.44
2023-05-01T06:51:16.342Z,15.48
2023-05-01T06:53:42.768Z,15.60
2023-05-01T06:56:09.225Z,15.68
2023-05-01T06:58:35.701Z,15.63
2023-05-01T07:01:18.408Z,15.60
2023-05-01T07:03:45.041Z,15.58
2023-05-01T07:06:11.593Z,15.57
2023-05-01T07:08:38.065Z,15.49
2023-05-01T07:11:04.512Z,15.53
2023-05-01T07:13:30.922Z,15.31
2023-05-01T07:15:57.342Z,15.29
2023-05-01T07:18:23.811Z,15.32
2023-05-01T07:20:50.292Z,15.51
2023-05-01T07:23:16.895Z,15.64
2023-05-01T07:25:43.352Z,15.72
2023-05-01T07:28:09.800Z,15.77
2023-05-01T07:30:36.232Z,15.75
2023-05-01T07:33:02.753Z,15.75
2023-05-01T07:40:59.582Z,15.87
2023-05-01T07:43:26.004Z,15.95
2023-05-01T07:48:36.927Z,16.10
2023-05-01T07:51:05.187Z,16.19
2023-05-01T07:53:31.595Z,16.19
2023-05-01T07:55:58.099Z,16.19
2023-05-01T07:58:24.466Z,16.16
2023-05-01T08:00:50.968Z,16.19
2023-05-01T08:03:17.523Z,16.15
2023-05-01T08:05:44.100Z,16.07
2023-05-01T08:08:10.576Z,16.06
2023-05-01T08:10:37.100Z,16.00
2023-05-01T08:13:03.681Z,15.94
2023-05-01T08:15:30.069Z,15.90
2023-05-01T08:17:56.612Z,15.84
2023-05-01T08:20:26.392Z,15.77
2023-05-01T08:22:52.853Z,15.59
2023-05-01T08:25:19.307Z,15.44
2023-05-01T08:27:45.816Z,15.52
2023-05-01T08:30:12.206Z,15.78
2023-05-01T08:32:38.715Z,15.92
2023-05-01T08:35:05.238Z,16.04
2023-05-01T08:37:36.263Z,16.09
2023-05-01T08:40:02.733Z,16.03
2023-05-01T08:42:31.010Z,15.75
2023-05-01T08:44:58.798Z,15.68
2023-05-01T08:47:25.361Z,15.48
2023-05-01T08:49:51.852Z,15.50
2023-05-01T08:52:18.359Z,15.60
2023-05-01T08:57:25.300Z,15.72
2023-05-01T08:59:51.902Z,15.73
2023-05-01T09:02:18.329Z,15.72
2023-05-01T09:04:46.960Z,15.61
2023-05-01T09:07:13.363Z,15.54
2023-05-01T09:09:39.852Z,15.49
2023-05-01T09:12:06.412Z,15.44
2023-05-01T09:14:32.918Z,15.34
2023-05-01T09:16:59.423Z,15.45
2023-05-01T09:19:25.923Z,15.54
2023-05-01T09:21:52.423Z,15.59
2023-05-01T09:24:18.962Z,15.67
2023-05-01T09:26:45.430Z,15.74
2023-05-01T09:29:11.898Z,15.82
2023-05-01T09:31:38.427Z,15.88
2023-05-01T09:34:04.976Z,15.92
2023-05-01T09:36:31.468Z,15.87
2023-05-01T09:38:57.993Z,15.93
2023-05-01T09:41:24.375Z,15.98
2023-05-01T09:43:50.806Z,16.02
2023-05-01T09:46:17.317Z,16.10
2023-05-01T09:48:43.902Z,16.06
2023-05-01T09:51:10.416Z,16.12
2023-05-01T09:53:36.940Z,15.97
2023-05-01T09:56:03.574Z,16.01
2023-05-01T09:58:35.219Z,16.03
2023-05-01T10:01:01.735Z,16.02
2023-05-01T10:03:28.242Z,16.06
2023-05-01T10:05:54.725Z,16.10
2023-05-01T10:08:21.294Z,16.19
2023-05-01T10:10:47.770Z,16.30
2023-05-01T10:13:14.219Z,16.42
2023-05-01T10:15:40.689Z,16.51
2023-05-01T10:18:07.237Z,16.32
2023-05-01T10:20:33.839Z,16.35
2023-05-01T10:23:00.390Z,16.13
2023-05-01T10:25:26.816Z,16.21
2023-05-01T10:27:53.301Z,16.32
2023-05-01T10:30:19.875Z,16.42
2023-05-01T10:32:46.448Z,16.44
2023-05-01T10:35:12.958Z,16.16
2023-05-01T10:37:39.363Z,16.11
2023-05-01T10:40:05.857Z,16.25
2023-05-01T10:42:34.446Z,16.26
2023-05-01T10:45:00.921Z,16.09
2023-05-01T10:47:27.426Z,16.19
2023-05-01T10:49:53.996Z,16.32
2023-05-01T10:52:20.456Z,16.32
2023-05-01T10:54:46.875Z,16.36
2023-05-01T10:57:13.306Z,16.42
2023-05-01T10:59:39.800Z,16.47
2023-05-01T11:02:06.918Z,16.47
2023-05-01T11:04:34.368Z,16.45
2023-05-01T11:07:00.982Z,16.10
2023-05-01T11:09:29.913Z,16.19
2023-05-01T11:11:56.500Z,16.10
2023-05-01T11:14:22.957Z,16.09
2023-05-01T11:16:49.749Z,16.17
2023-05-01T11:19:16.569Z,16.25
2023-05-01T11:21:44.443Z,16.32
2023-05-01T11:24:10.978Z,16.37
2023-05-01T11:26:37.409Z,16.29
2023-05-01T11:29:03.876Z,16.10
2023-05-01T11:31:30.353Z,16.13
2023-05-01T11:33:56.792Z,16.16
2023-05-01T11:36:23.260Z,16.05
2023-05-01T11:38:49.734Z,15.79
2023-05-01T11:41:16.213Z,15.83
2023-05-01T11:43:42.719Z,15.89
2023-05-01T11:48:49.476Z,15.98
2023-05-01T11:51:15.868Z,15.96
2023-05-01T11:53:42.299Z,16.07
2023-05-01T11:56:19.496Z,16.18
2023-05-01T11:58:52.369Z,16.33
2023-05-01T12:01:18.759Z,16.42
2023-05-01T12:06:36.828Z,16.37
2023-05-01T12:09:03.554Z,16.34
2023-05-01T12:11:31.071Z,16.32
2023-05-01T12:13:57.508Z,16.42
2023-05-01T12:16:23.926Z,16.27
2023-05-01T12:18:50.448Z,16.42
2023-05-01T12:21:16.910Z,16.49
2023-05-01T12:23:43.378Z,16.60
2023-05-01T12:26:09.850Z,16.79
2023-05-01T12:28:36.320Z,16.92
2023-05-01T12:31:04.868Z,16.98
2023-05-01T12:33:31.997Z,16.58
2023-05-01T12:35:58.461Z,16.51
2023-05-01T12:38:24.979Z,16.52
2023-05-01T12:40:51.451Z,16.32
2023-05-01T12:43:17.889Z,16.41
2023-05-01T12:45:44.333Z,16.49
2023-05-01T12:48:10.791Z,16.71
2023-05-01T12:50:37.257Z,16.97
2023-05-01T12:53:03.676Z,17.20
2023-05-01T12:55:30.163Z,17.28
2023-05-01T12:57:56.674Z,17.43
2023-05-01T13:00:23.138Z,17.48
2023-05-01T13:02:49.710Z,17.50
2023-05-01T13:05:16.426Z,17.49
2023-05-01T13:07:42.892Z,17.48
2023-05-01T13:10:09.329Z,17.41
2023-05-01T13:12:35.791Z,17.36
2023-05-01T13:15:02.162Z,17.36
2023-05-01T13:17:34.731Z,17.18
2023-05-01T13:20:01.862Z,17.23
2023-05-01T13:22:28.710Z,17.26
2023-05-01T13:24:55.150Z,17.22
2023-05-01T13:27:21.685Z,17.28
2023-05-01T13:29:48.231Z,17.28
2023-05-01T13:32:14.721Z,17.30
2023-05-01T13:34:41.149Z,17.39
2023-05-01T13:37:07.590Z,17.50
2023-05-01T13:39:34.023Z,17.52
2023-05-01T13:42:00.539Z,17.54
2023-05-01T13:44:26.990Z,17.64
2023-05-01T13:46:53.420Z,17.68
2023-05-01T13:49:19.943Z,17.72
2023-05-01T13:51:46.295Z,17.76
2023-05-01T13:54:17.572Z,17.68
2023-05-01T13:56:44.001Z,17.58
2023-05-01T13:59:10.434Z,17.63
2023-05-01T14:01:36.948Z,17.60
2023-05-01T14:04:04.403Z,17.66
2023-05-01T14:06:31.081Z,17.75
2023-05-01T14:08:57.595Z,17.76
2023-05-01T14:11:24.036Z,17.73
2023-05-01T14:13:50.429Z,17.67
2023-05-01T14:16:16.899Z,17.52
2023-05-01T14:18:43.388Z,17.45
2023-05-01T14:21:09.890Z,17.50
2023-05-01T14:23:36.325Z,17.57
2023-05-01T14:26:02.726Z,17.42
2023-05-01T14:28:29.156Z,17.50
2023-05-01T14:30:55.694Z,17.49
2023-05-01T14:33:22.127Z,17.61
2023-05-01T14:35:48.627Z,17.70
2023-05-01T14:38:15.142Z,17.73
2023-05-01T14:40:41.674Z,17.77
2023-05-01T14:43:08.231Z,17.82
2023-05-01T14:45:34.710Z,17.83
2023-05-01T14:48:01.178Z,17.90
2023-05-01T14:50:27.623Z,17.94
2023-05-01T14:52:54.087Z,18.01
2023-05-01T14:55:20.584Z,18.00
2023-05-01T14:57:47.051Z,18.04
2023-05-01T15:00:13.471Z,18.04
2023-05-01T15:02:43.016Z,18.05
2023-05-01T15:05:09.479Z,17.83
2023-05-01T15:07:35.899Z,17.63
2023-05-01T15:10:02.437Z,17.67
2023-05-01T15:12:28.848Z,17.77
2023-05-01T15:14:55.467Z,17.96
2023-05-01T15:17:22.160Z,18.04
2023-05-01T15:19:48.641Z,18.07
2023-05-01T15:22:15.166Z,18.06
2023-05-01T15:24:41.712Z,18.17
2023-05-01T15:27:08.119Z,18.27
2023-05-01T15:29:34.545Z,18.37
2023-05-01T15:32:10.769Z,18.44
2023-05-01T15:34:38.672Z,18.52
2023-05-01T15:37:05.130Z,18.44
2023-05-01T15:39:31.612Z,18.25
2023-05-01T15:41:58.042Z,18.30
2023-05-01T15:44:24.847Z,18.49
2023-05-01T15:46:51.615Z,18.67
2023-05-01T15:49:18.445Z,18.79
2023-05-01T15:51:44.991Z,18.85
2023-05-01T15:54:11.538Z,18.94
2023-05-01T15:56:37.960Z,19.03
2023-05-01T15:59:04.451Z,19.26
2023-05-01T16:01:30.914Z,19.41
2023-05-01T16:03:57.517Z,19.81
2023-05-01T16:06:23.929Z,19.72
2023-05-01T16:08:50.411Z,19.86
2023-05-01T16:11:16.851Z,20.22
2023-05-01T16:13:43.293Z,20.83
2023-05-01T16:16:09.735Z,21.25
2023-05-01T16:18:36.203Z,21.71
2023-05-01T16:21:02.652Z,22.28
2023-05-01T16:23:29.096Z,21.76
2023-05-01T16:25:55.523Z,21.00
2023-05-01T16:28:21.959Z,20.88
2023-05-01T16:30:48.395Z,21.08
2023-05-01T16:33:16.890Z,20.42
2023-05-01T16:35:44.814Z,20.14
2023-05-01T16:38:16.625Z,19.86
2023-05-01T16:40:43.105Z,19.58
2023-05-01T16:43:09.564Z,19.37
2023-05-01T16:45:36.001Z,19.19
2023-05-01T16:48:02.453Z,18.95
2023-05-01T16:50:28.919Z,18.78
2023-05-01T16:52:55.390Z,18.31
2023-05-01T16:55:21.873Z,17.92
2023-05-01T16:57:48.271Z,17.74
2023-05-01T17:00:17.532Z,17.57
2023-05-01T17:02:44.117Z,17.42
2023-05-01T17:05:10.666Z,17.26
2023-05-01T17:07:37.069Z,17.09
2023-05-01T17:10:03.798Z,16.83
2023-05-01T17:12:30.454Z,16.77
2023-05-01T17:14:56.994Z,16.72
2023-05-01T17:17:23.545Z,16.59
2023-05-01T17:22:30.395Z,16.49
2023-05-01T17:24:56.897Z,16.49
2023-05-01T17:27:23.898Z,16.52
2023-05-01T17:29:50.416Z,16.58
2023-05-01T17:32:33.104Z,16.57
2023-05-01T17:35:02.746Z,16.72
2023-05-01T17:37:29.283Z,16.68
2023-05-01T17:39:55.872Z,16.78
2023-05-01T17:42:22.417Z,16.65
2023-05-01T17:44:48.894Z,16.57
2023-05-01T17:47:15.434Z,16.49
2023-05-01T17:49:41.995Z,16.44
2023-05-01T17:52:14.669Z,16.43
2023-05-01T17:54:41.135Z,16.39
2023-05-01T17:57:07.586Z,16.30
2023-05-01T17:59:34.086Z,16.20
2023-05-01T18:02:00.544Z,16.18
2023-05-01T18:04:31.662Z,16.10
2023-05-01T18:06:58.363Z,16.12
2023-05-01T18:09:24.917Z,16.17
2023-05-01T18:11:51.365Z,16.20
2023-05-01T18:14:17.810Z,16.21
2023-05-01T18:16:44.314Z,16.21
2023-05-01T18:19:10.739Z,16.25
2023-05-01T18:21:37.151Z,16.22
2023-05-01T18:24:03.611Z,16.16
2023-05-01T18:26:30.146Z,16.12
2023-05-01T18:28:56.675Z,16.03
2023-05-01T18:31:23.318Z,16.00
2023-05-01T18:33:49.828Z,15.98
2023-05-01T18:38:56.574Z,15.95
2023-05-01T18:41:23.102Z,15.97
2023-05-01T18:43:51.810Z,16.02
2023-05-01T18:46:20.152Z,16.02
2023-05-01T18:48:46.598Z,16.01
2023-05-01T18:51:13.043Z,16.02
2023-05-01T18:53:39.516Z,16.02
2023-05-01T18:56:05.971Z,16.01
2023-05-01T18:58:32.508Z,15.97
2023-05-01T19:00:58.990Z,15.97
2023-05-01T19:03:25.491Z,15.94
2023-05-01T19:05:51.917Z,15.94
2023-05-01T19:08:18.321Z,15.84
2023-05-01T19:10:45.934Z,15.87
2023-05-01T19:13:12.412Z,15.84
2023-05-01T19:15:38.848Z,15.84
2023-05-01T19:18:05.345Z,15.79
2023-05-01T19:20:31.827Z,15.77
2023-05-01T19:22:58.232Z,15.73
2023-05-01T19:25:24.616Z,15.77
2023-05-01T19:27:51.057Z,15.78
2023-05-01T19:30:17.561Z,15.81
2023-05-01T19:32:44.068Z,15.80
2023-05-01T19:35:10.546Z,15.82
2023-05-01T19:37:37.070Z,15.77
2023-05-01T19:40:03.615Z,15.79
2023-05-01T19:42:30.245Z,15.75
2023-05-01T19:44:56.686Z,15.72
2023-05-01T19:47:25.592Z,15.73
2023-05-01T19:52:32.457Z,15.68
2023-05-01T19:54:59.593Z,15.70
2023-05-01T19:57:26.169Z,15.68
2023-05-01T19:59:52.694Z,15.70
2023-05-01T20:02:19.191Z,15.69
2023-05-01T20:04:45.772Z,15.69
2023-05-01T20:10:00.054Z,15.73
2023-05-01T20:12:26.836Z,15.72
2023-05-01T20:14:53.257Z,15.70
2023-05-01T20:17:24.792Z,15.68
2023-05-01T20:19:51.325Z,15.58
2023-05-01T20:22:17.834Z,15.65
2023-05-01T20:24:44.325Z,15.69
2023-05-01T20:27:10.810Z,15.69
2023-05-01T20:29:37.259Z,15.70
2023-05-01T20:32:03.699Z,15.65
2023-05-01T20:34:30.131Z,15.64
2023-05-01T20:36:59.047Z,15.57
2023-05-01T20:39:25.531Z,15.65
2023-05-01T20:41:52.026Z,15.79
2023-05-01T20:44:18.586Z,15.76
2023-05-01T20:46:46.523Z,15.74
2023-05-01T20:49:15.184Z,15.73
2023-05-01T20:51:42.572Z,15.65
2023-05-01T20:54:08.999Z,15.60
2023-05-01T20:56:35.422Z,15.58
2023-05-01T20:59:01.896Z,15.59
2023-05-01T21:01:28.390Z,15.61
2023-05-01T21:03:54.944Z,15.65
2023-05-01T21:06:21.539Z,15.62
2023-05-01T21:08:48.014Z,15.68
2023-05-01T21:11:14.361Z,15.68
2023-05-01T21:13:43.310Z,15.70
2023-05-01T21:16:09.842Z,15.75
2023-05-01T21:18:36.301Z,15.84
2023-05-01T21:21:02.726Z,15.86
2023-05-01T21:23:29.171Z,15.86
2023-05-01T21:25:55.599Z,15.85
2023-05-01T21:28:22.066Z,15.84
2023-05-01T21:30:48.604Z,15.85
2023-05-01T21:33:15.159Z,15.82
2023-05-01T21:35:41.580Z,15.82
2023-05-01T21:38:08.012Z,15.86
2023-05-01T21:40:34.419Z,15.76
2023-05-01T21:43:00.794Z,15.78
2023-05-01T21:45:27.220Z,15.87
2023-05-01T21:47:53.844Z,15.89
2023-05-01T21:50:20.306Z,15.88
2023-05-01T21:52:46.759Z,15.91
2023-05-01T21:55:13.229Z,15.93
2023-05-01T21:57:39.689Z,15.85
2023-05-01T22:00:06.136Z,15.80
2023-05-01T22:02:32.558Z,15.80
2023-05-01T22:04:59.091Z,15.74
2023-05-01T22:07:25.601Z,15.64
2023-05-01T22:09:52.096Z,15.68
2023-05-01T22:12:18.542Z,15.73
2023-05-01T22:14:47.472Z,15.74
2023-05-01T22:17:14.327Z,15.76
2023-05-01T22:19:40.742Z,15.75
2023-05-01T22:22:07.476Z,15.73
2023-05-01T22:24:35.192Z,15.66
2023-05-01T22:27:01.709Z,15.65
2023-05-01T22:29:28.178Z,15.64
2023-05-01T22:31:56.536Z,15.61
2023-05-01T22:34:23.046Z,15.64
2023-05-01T22:36:49.559Z,15.67
2023-05-01T22:39:16.074Z,15.63
2023-05-01T22:41:42.506Z,15.70
2023-05-01T22:44:08.921Z,15.69
2023-05-01T22:46:35.520Z,15.64
2023-05-01T22:49:02.225Z,15.69
2023-05-01T22:51:28.692Z,15.71
2023-05-01T22:53:55.092Z,15.75
2023-05-01T22:56:21.552Z,15.73
2023-05-01T22:58:48.063Z,15.69
2023-05-01T23:01:14.493Z,15.63
2023-05-01T23:03:41.333Z,15.57
2023-05-01T23:06:07.924Z,15.54
2023-05-01T23:08:34.476Z,15.51
2023-05-01T23:11:00.941Z,15.56
2023-05-01T23:13:27.405Z,15.56
2023-05-01T23:15:53.869Z,15.58
2023-05-01T23:18:20.341Z,15.58
2023-05-01T23:20:46.908Z,15.59
2023-05-01T23:23:13.381Z,15.57
2023-05-01T23:25:39.786Z,15.56
2023-05-01T23:28:09.183Z,15.56
2023-05-01T23:30:35.623Z,15.55
2023-05-01T23:33:02.179Z,15.38
2023-05-01T23:35:28.680Z,15.43
2023-05-01T23:37:55.123Z,15.49
2023-05-01T23:40:21.538Z,15.50
2023-05-01T23:42:47.980Z,15.49
2023-05-01T23:45:14.480Z,15.45
2023-05-01T23:47:40.896Z,15.45
2023-05-01T23:50:07.322Z,15.48
2023-05-01T23:52:33.790Z,15.49
2023-05-01T23:55:00.210Z,15.46
2023-05-01T23:57:26.660Z,15.52
2023-05-01T23:59:56.474Z,15.50
